sensor_id;sensor_type;location;lat;lon;timestamp;pressure;altitude;pressure_sealevel;temperature;humidity
14069;BME280;18408;50.020;14.436;2022-07-23T00:00:11;73428.88;;;-145.05;71.52
14069;BME280;18408;50.020;14.436;2022-07-23T00:02:37;73435.03;;;-145.05;71.81
14069;BME280;18408;50.020;14.436;2022-07-23T00:05:06;73437.09;;;-145.05;71.87
14069;BME280;18408;50.020;14.436;2022-07-23T00:07:37;73433.00;;;-145.05;72.76
14069;BME280;18408;50.020;14.436;2022-07-23T00:10:07;73443.25;;;-145.05;72.86
14069;BME280;18408;50.020;14.436;2022-07-23T00:12:39;73455.53;;;-145.05;74.07
14069;BME280;18408;50.020;14.436;2022-07-23T00:15:13;73459.66;;;-145.05;74.52
14069;BME280;18408;50.020;14.436;2022-07-23T00:17:41;73461.69;;;-145.05;74.60
14069;BME280;18408;50.020;14.436;2022-07-23T00:20:08;73465.78;;;-145.05;74.50
14069;BME280;18408;50.020;14.436;2022-07-23T00:22:45;73461.69;;;-145.05;74.43
14069;BME280;18408;50.020;14.436;2022-07-23T00:25:13;73445.28;;;-145.05;75.48
14069;BME280;18408;50.020;14.436;2022-07-23T00:27:41;73457.59;;;-145.05;76.58
14069;BME280;18408;50.020;14.436;2022-07-23T00:30:12;73467.84;;;-145.05;76.66
14069;BME280;18408;50.020;14.436;2022-07-23T00:32:45;73467.84;;;-145.05;77.25
14069;BME280;18408;50.020;14.436;2022-07-23T00:35:12;73474.00;;;-145.05;77.47
14069;BME280;18408;50.020;14.436;2022-07-23T00:37:38;73467.84;;;-145.05;77.86
14069;BME280;18408;50.020;14.436;2022-07-23T00:40:08;73471.94;;;-145.05;78.32
14069;BME280;18408;50.020;14.436;2022-07-23T00:42:35;73463.75;;;-145.05;78.50
14069;BME280;18408;50.020;14.436;2022-07-23T00:45:03;73465.78;;;-145.05;77.78
14069;BME280;18408;50.020;14.436;2022-07-23T00:47:34;73461.69;;;-145.05;78.28
14069;BME280;18408;50.020;14.436;2022-07-23T00:50:01;73459.66;;;-145.05;78.36
14069;BME280;18408;50.020;14.436;2022-07-23T00:52:30;73457.59;;;-145.05;78.73
14069;BME280;18408;50.020;14.436;2022-07-23T00:54:57;73459.66;;;-145.05;79.23
14069;BME280;18408;50.020;14.436;2022-07-23T00:57:28;73469.91;;;-145.05;79.01
14069;BME280;18408;50.020;14.436;2022-07-23T00:59:57;73461.69;;;-145.05;78.66
14069;BME280;18408;50.020;14.436;2022-07-23T01:02:25;73457.59;;;-145.05;78.74
14069;BME280;18408;50.020;14.436;2022-07-23T01:04:55;73461.69;;;-145.05;78.81
14069;BME280;18408;50.020;14.436;2022-07-23T01:07:23;73457.59;;;-145.05;79.07
14069;BME280;18408;50.020;14.436;2022-07-23T01:09:51;73459.66;;;-145.05;79.14
14069;BME280;18408;50.020;14.436;2022-07-23T01:12:18;73455.53;;;-145.05;78.53
14069;BME280;18408;50.020;14.436;2022-07-23T01:14:53;73463.75;;;-145.05;79.00
14069;BME280;18408;50.020;14.436;2022-07-23T01:17:21;73453.50;;;-145.05;79.54
14069;BME280;18408;50.020;14.436;2022-07-23T01:19:48;73463.75;;;-145.05;79.69
14069;BME280;18408;50.020;14.436;2022-07-23T01:22:16;73463.75;;;-145.05;79.95
14069;BME280;18408;50.020;14.436;2022-07-23T01:24:47;73465.78;;;-145.05;80.35
14069;BME280;18408;50.020;14.436;2022-07-23T01:27:13;73461.69;;;-145.05;80.07
14069;BME280;18408;50.020;14.436;2022-07-23T01:29:42;73457.59;;;-145.05;80.65
14069;BME280;18408;50.020;14.436;2022-07-23T01:32:13;73457.59;;;-145.05;80.38
14069;BME280;18408;50.020;14.436;2022-07-23T01:34:39;73457.59;;;-145.05;81.39
14069;BME280;18408;50.020;14.436;2022-07-23T01:37:07;73469.91;;;-145.05;82.01
14069;BME280;18408;50.020;14.436;2022-07-23T01:39:36;73478.09;;;-145.05;82.24
14069;BME280;18408;50.020;14.436;2022-07-23T01:42:04;73478.09;;;-145.05;82.50
14069;BME280;18408;50.020;14.436;2022-07-23T01:44:30;73476.03;;;-145.05;82.78
14069;BME280;18408;50.020;14.436;2022-07-23T01:46:56;73486.28;;;-145.05;82.65
14069;BME280;18408;50.020;14.436;2022-07-23T01:49:23;73480.16;;;-145.05;82.76
14069;BME280;18408;50.020;14.436;2022-07-23T01:51:49;73478.09;;;-145.05;82.84
14069;BME280;18408;50.020;14.436;2022-07-23T01:54:30;73482.19;;;-145.05;82.50
14069;BME280;18408;50.020;14.436;2022-07-23T01:56:56;73492.44;;;-145.05;82.64
14069;BME280;18408;50.020;14.436;2022-07-23T01:59:25;73478.09;;;-145.05;82.73
14069;BME280;18408;50.020;14.436;2022-07-23T02:01:51;73484.25;;;-145.05;83.17
14069;BME280;18408;50.020;14.436;2022-07-23T02:04:18;73486.28;;;-145.05;84.00
14069;BME280;18408;50.020;14.436;2022-07-23T02:06:44;73494.50;;;-145.05;84.25
14069;BME280;18408;50.020;14.436;2022-07-23T02:09:11;73490.41;;;-145.05;83.98
14069;BME280;18408;50.020;14.436;2022-07-23T02:11:37;73494.50;;;-145.05;84.20
14069;BME280;18408;50.020;14.436;2022-07-23T02:14:04;73498.59;;;-145.05;84.42
14069;BME280;18408;50.020;14.436;2022-07-23T02:16:32;73508.84;;;-145.05;85.30
14069;BME280;18408;50.020;14.436;2022-07-23T02:18:58;73517.06;;;-145.05;85.02
14069;BME280;18408;50.020;14.436;2022-07-23T02:21:25;73521.16;;;-145.05;85.41
14069;BME280;18408;50.020;14.436;2022-07-23T02:23:51;73527.31;;;-145.05;85.18
14069;BME280;18408;50.020;14.436;2022-07-23T02:26:18;73529.34;;;-145.05;85.15
14069;BME280;18408;50.020;14.436;2022-07-23T02:28:44;73525.25;;;-145.05;85.68
14069;BME280;18408;50.020;14.436;2022-07-23T02:31:10;73517.06;;;-145.05;85.46
14069;BME280;18408;50.020;14.436;2022-07-23T02:33:38;73529.34;;;-145.05;85.10
14069;BME280;18408;50.020;14.436;2022-07-23T02:36:05;73535.50;;;-145.05;86.47
14069;BME280;18408;50.020;14.436;2022-07-23T02:38:31;73551.91;;;-145.05;86.64
14069;BME280;18408;50.020;14.436;2022-07-23T02:40:57;73551.91;;;-145.05;86.82
14069;BME280;18408;50.020;14.436;2022-07-23T02:43:24;73553.94;;;-145.05;87.00
14069;BME280;18408;50.020;14.436;2022-07-23T02:45:50;73553.94;;;-145.05;86.81
14069;BME280;18408;50.020;14.436;2022-07-23T02:48:17;73564.19;;;-145.05;87.03
14069;BME280;18408;50.020;14.436;2022-07-23T02:50:45;73560.09;;;-145.05;86.95
14069;BME280;18408;50.020;14.436;2022-07-23T02:53:11;73564.19;;;-145.05;87.21
14069;BME280;18408;50.020;14.436;2022-07-23T02:55:37;73558.06;;;-145.05;87.00
14069;BME280;18408;50.020;14.436;2022-07-23T02:58:04;73560.09;;;-145.05;86.56
14069;BME280;18408;50.020;14.436;2022-07-23T03:00:30;73556.00;;;-145.05;86.93
14069;BME280;18408;50.020;14.436;2022-07-23T03:02:57;73556.00;;;-145.05;86.96
14069;BME280;18408;50.020;14.436;2022-07-23T03:05:23;73558.06;;;-145.05;87.11
14069;BME280;18408;50.020;14.436;2022-07-23T03:07:51;73553.94;;;-145.05;87.10
14069;BME280;18408;50.020;14.436;2022-07-23T03:10:21;73556.00;;;-145.05;86.43
14069;BME280;18408;50.020;14.436;2022-07-23T03:12:48;73545.75;;;-145.05;86.72
14069;BME280;18408;50.020;14.436;2022-07-23T03:15:15;73543.69;;;-145.05;86.51
14069;BME280;18408;50.020;14.436;2022-07-23T03:17:42;73535.50;;;-145.05;86.45
14069;BME280;18408;50.020;14.436;2022-07-23T03:20:09;73545.75;;;-145.05;86.31
14069;BME280;18408;50.020;14.436;2022-07-23T03:22:36;73541.66;;;-145.05;86.42
14069;BME280;18408;50.020;14.436;2022-07-23T03:25:05;73533.44;;;-145.05;86.40
14069;BME280;18408;50.020;14.436;2022-07-23T03:27:33;73531.41;;;-145.05;86.49
14069;BME280;18408;50.020;14.436;2022-07-23T03:30:00;73527.31;;;-145.05;86.61
14069;BME280;18408;50.020;14.436;2022-07-23T03:32:26;73523.19;;;-145.05;86.59
14069;BME280;18408;50.020;14.436;2022-07-23T03:34:53;73519.09;;;-145.05;86.55
14069;BME280;18408;50.020;14.436;2022-07-23T03:37:19;73510.91;;;-145.05;85.99
14069;BME280;18408;50.020;14.436;2022-07-23T03:39:48;73515.00;;;-145.05;85.70
14069;BME280;18408;50.020;14.436;2022-07-23T03:42:21;73504.75;;;-145.05;86.14
14069;BME280;18408;50.020;14.436;2022-07-23T03:44:50;73490.41;;;-145.05;85.88
14069;BME280;18408;50.020;14.436;2022-07-23T03:47:18;73502.69;;;-145.05;86.10
14069;BME280;18408;50.020;14.436;2022-07-23T03:49:47;73510.91;;;-145.05;86.27
14069;BME280;18408;50.020;14.436;2022-07-23T03:52:14;73498.59;;;-145.05;86.02
14069;BME280;18408;50.020;14.436;2022-07-23T03:54:40;73504.75;;;-145.05;86.14
14069;BME280;18408;50.020;14.436;2022-07-23T03:57:07;73515.00;;;-145.05;86.20
14069;BME280;18408;50.020;14.436;2022-07-23T03:59:35;73515.00;;;-145.05;86.02
14069;BME280;18408;50.020;14.436;2022-07-23T04:02:01;73527.31;;;-145.05;85.90
14069;BME280;18408;50.020;14.436;2022-07-23T04:04:30;73537.56;;;-145.05;86.09
14069;BME280;18408;50.020;14.436;2022-07-23T04:06:56;73537.56;;;-145.05;86.26
14069;BME280;18408;50.020;14.436;2022-07-23T04:09:23;73541.66;;;-145.05;86.07
14069;BME280;18408;50.020;14.436;2022-07-23T04:11:49;73512.94;;;-145.05;84.99
14069;BME280;18408;50.020;14.436;2022-07-23T04:14:15;73510.91;;;-145.05;85.15
14069;BME280;18408;50.020;14.436;2022-07-23T04:16:44;73529.34;;;-145.05;85.34
14069;BME280;18408;50.020;14.436;2022-07-23T04:19:11;73531.41;;;-145.05;86.13
14069;BME280;18408;50.020;14.436;2022-07-23T04:21:38;73527.31;;;-145.05;86.21
14069;BME280;18408;50.020;14.436;2022-07-23T04:24:07;73508.84;;;-145.05;86.10
14069;BME280;18408;50.020;14.436;2022-07-23T04:26:34;73521.16;;;-145.05;86.03
14069;BME280;18408;50.020;14.436;2022-07-23T04:29:00;73500.66;;;-145.05;85.44
14069;BME280;18408;50.020;14.436;2022-07-23T04:31:27;73496.53;;;-145.05;85.75
14069;BME280;18408;50.020;14.436;2022-07-23T04:34:01;73482.19;;;-145.05;85.65
14069;BME280;18408;50.020;14.436;2022-07-23T04:36:29;73467.84;;;-145.05;85.56
14069;BME280;18408;50.020;14.436;2022-07-23T04:38:57;73445.28;;;-145.05;84.39
14069;BME280;18408;50.020;14.436;2022-07-23T04:41:25;73449.41;;;-145.05;84.60
14069;BME280;18408;50.020;14.436;2022-07-23T04:43:51;73428.88;;;-145.05;84.27
14069;BME280;18408;50.020;14.436;2022-07-23T04:46:18;73406.34;;;-145.05;83.31
14069;BME280;18408;50.020;14.436;2022-07-23T04:48:44;73396.09;;;-145.05;82.73
14069;BME280;18408;50.020;14.436;2022-07-23T04:51:12;73396.09;;;-145.05;82.24
14069;BME280;18408;50.020;14.436;2022-07-23T04:53:38;73379.69;;;-145.05;81.12
14069;BME280;18408;50.020;14.436;2022-07-23T04:56:06;73365.34;;;-145.05;80.76
14069;BME280;18408;50.020;14.436;2022-07-23T04:58:33;73387.88;;;-145.05;81.29
14069;BME280;18408;50.020;14.436;2022-07-23T05:00:59;73398.13;;;-145.05;81.76
14069;BME280;18408;50.020;14.436;2022-07-23T05:03:26;73394.03;;;-145.05;81.30
14069;BME280;18408;50.020;14.436;2022-07-23T05:05:52;73414.53;;;-145.05;82.32
14069;BME280;18408;50.020;14.436;2022-07-23T05:08:20;73433.00;;;-145.05;82.82
14069;BME280;18408;50.020;14.436;2022-07-23T05:10:46;73426.84;;;-145.05;82.57
14069;BME280;18408;50.020;14.436;2022-07-23T05:13:13;73433.00;;;-145.05;82.13
14069;BME280;18408;50.020;14.436;2022-07-23T05:15:40;73445.28;;;-145.05;81.61
14069;BME280;18408;50.020;14.436;2022-07-23T05:18:07;73478.09;;;-145.05;82.19
14069;BME280;18408;50.020;14.436;2022-07-23T05:20:34;73492.44;;;-145.05;82.06
14069;BME280;18408;50.020;14.436;2022-07-23T05:23:00;73519.09;;;-145.05;82.11
14069;BME280;18408;50.020;14.436;2022-07-23T05:25:31;73537.56;;;-145.05;83.64
14069;BME280;18408;50.020;14.436;2022-07-23T05:27:57;73529.34;;;-145.05;85.83
14069;BME280;18408;50.020;14.436;2022-07-23T05:30:25;73537.56;;;-145.05;87.63
14069;BME280;18408;50.020;14.436;2022-07-23T05:32:52;73553.94;;;-145.05;87.36
14069;BME280;18408;50.020;14.436;2022-07-23T05:35:18;73564.19;;;-145.05;88.36
14069;BME280;18408;50.020;14.436;2022-07-23T05:37:44;73572.41;;;-145.05;88.35
14069;BME280;18408;50.020;14.436;2022-07-23T05:40:12;73576.50;;;-145.05;88.52
14069;BME280;18408;50.020;14.436;2022-07-23T05:42:40;73576.50;;;-145.05;89.17
14069;BME280;18408;50.020;14.436;2022-07-23T05:45:07;73570.34;;;-145.05;89.44
14069;BME280;18408;50.020;14.436;2022-07-23T05:47:39;73578.56;;;-145.05;90.44
14069;BME280;18408;50.020;14.436;2022-07-23T05:50:07;73588.81;;;-145.05;91.29
14069;BME280;18408;50.020;14.436;2022-07-23T05:52:35;73588.81;;;-145.05;91.53
14069;BME280;18408;50.020;14.436;2022-07-23T05:55:04;73580.59;;;-145.05;91.69
14069;BME280;18408;50.020;14.436;2022-07-23T05:57:30;73594.97;;;-145.05;92.16
14069;BME280;18408;50.020;14.436;2022-07-23T06:00:00;73578.56;;;-145.05;92.18
14069;BME280;18408;50.020;14.436;2022-07-23T06:02:29;73572.41;;;-145.05;93.23
14069;BME280;18408;50.020;14.436;2022-07-23T06:04:55;73562.16;;;-145.05;94.18
14069;BME280;18408;50.020;14.436;2022-07-23T06:07:22;73566.25;;;-145.05;93.91
14069;BME280;18408;50.020;14.436;2022-07-23T06:09:48;73578.56;;;-145.05;96.57
14069;BME280;18408;50.020;14.436;2022-07-23T06:12:15;73607.25;;;-145.05;96.76
14069;BME280;18408;50.020;14.436;2022-07-23T06:14:43;73605.22;;;-145.05;98.13
14069;BME280;18408;50.020;14.436;2022-07-23T06:17:17;73605.22;;;-145.05;98.08
14069;BME280;18408;50.020;14.436;2022-07-23T06:19:44;73607.25;;;-145.05;97.21
14069;BME280;18408;50.020;14.436;2022-07-23T06:22:12;73611.34;;;-145.05;98.25
14069;BME280;18408;50.020;14.436;2022-07-23T06:24:40;73597.00;;;-145.05;98.33
14069;BME280;18408;50.020;14.436;2022-07-23T06:27:08;73588.81;;;-145.05;98.49
14069;BME280;18408;50.020;14.436;2022-07-23T06:29:35;73547.81;;;-145.05;97.27
14069;BME280;18408;50.020;14.436;2022-07-23T06:32:03;73525.25;;;-145.05;95.84
14069;BME280;18408;50.020;14.436;2022-07-23T06:34:33;73480.16;;;-145.05;96.40
14069;BME280;18408;50.020;14.436;2022-07-23T06:37:00;73463.75;;;-145.05;98.41
14069;BME280;18408;50.020;14.436;2022-07-23T06:39:28;73445.28;;;-145.05;97.09
14069;BME280;18408;50.020;14.436;2022-07-23T06:41:54;73398.13;;;-145.05;95.45
14069;BME280;18408;50.020;14.436;2022-07-23T06:44:22;73375.59;;;-145.05;94.09
14069;BME280;18408;50.020;14.436;2022-07-23T06:46:49;73371.50;;;-145.05;90.76
14069;BME280;18408;50.020;14.436;2022-07-23T06:49:17;73369.44;;;-145.05;91.03
14069;BME280;18408;50.020;14.436;2022-07-23T06:51:44;73369.44;;;-145.05;92.06
14069;BME280;18408;50.020;14.436;2022-07-23T06:54:11;73367.38;;;-145.05;91.57
14069;BME280;18408;50.020;14.436;2022-07-23T06:56:38;73377.63;;;-145.05;91.52
14069;BME280;18408;50.020;14.436;2022-07-23T06:59:04;73387.88;;;-145.05;93.47
14069;BME280;18408;50.020;14.436;2022-07-23T07:01:32;73375.59;;;-145.05;93.03
14069;BME280;18408;50.020;14.436;2022-07-23T07:03:59;73379.69;;;-145.05;92.90
14069;BME280;18408;50.020;14.436;2022-07-23T07:06:25;73389.94;;;-145.05;91.94
14069;BME280;18408;50.020;14.436;2022-07-23T07:08:53;73389.94;;;-145.05;91.77
14069;BME280;18408;50.020;14.436;2022-07-23T07:11:20;73385.84;;;-145.05;92.17
14069;BME280;18408;50.020;14.436;2022-07-23T07:13:48;73396.09;;;-145.05;91.96
14069;BME280;18408;50.020;14.436;2022-07-23T07:16:15;73383.78;;;-145.05;91.93
14069;BME280;18408;50.020;14.436;2022-07-23T07:18:41;73379.69;;;-145.05;90.93
14069;BME280;18408;50.020;14.436;2022-07-23T07:21:09;73371.50;;;-145.05;91.16
14069;BME280;18408;50.020;14.436;2022-07-23T07:23:37;73383.78;;;-145.05;92.06
14069;BME280;18408;50.020;14.436;2022-07-23T07:26:06;73369.44;;;-145.05;91.44
14069;BME280;18408;50.020;14.436;2022-07-23T07:28:33;73371.50;;;-145.05;91.93
14069;BME280;18408;50.020;14.436;2022-07-23T07:31:01;73353.03;;;-145.05;91.75
14069;BME280;18408;50.020;14.436;2022-07-23T07:33:36;73334.59;;;-145.05;90.79
14069;BME280;18408;50.020;14.436;2022-07-23T07:36:03;73320.22;;;-145.05;90.23
14069;BME280;18408;50.020;14.436;2022-07-23T07:38:31;73287.44;;;-145.05;88.76
14069;BME280;18408;50.020;14.436;2022-07-23T07:40:58;73248.47;;;-145.05;86.77
14069;BME280;18408;50.020;14.436;2022-07-23T07:43:26;73207.47;;;-145.05;86.09
14069;BME280;18408;50.020;14.436;2022-07-23T07:45:52;73186.97;;;-145.05;84.11
14069;BME280;18408;50.020;14.436;2022-07-23T07:48:18;73156.22;;;-145.05;83.25
14069;BME280;18408;50.020;14.436;2022-07-23T07:50:45;73129.59;;;-145.05;81.67
14069;BME280;18408;50.020;14.436;2022-07-23T07:53:11;73076.28;;;-145.05;80.05
14069;BME280;18408;50.020;14.436;2022-07-23T07:55:39;73076.28;;;-145.05;80.41
14069;BME280;18408;50.020;14.436;2022-07-23T07:58:05;73080.38;;;-145.05;80.58
14069;BME280;18408;50.020;14.436;2022-07-23T08:00:36;73057.84;;;-145.05;78.83
14069;BME280;18408;50.020;14.436;2022-07-23T08:03:05;73051.69;;;-145.05;78.63
14069;BME280;18408;50.020;14.436;2022-07-23T08:05:33;73014.78;;;-145.05;76.76
14069;BME280;18408;50.020;14.436;2022-07-23T08:08:00;72979.94;;;-145.05;75.75
14069;BME280;18408;50.020;14.436;2022-07-23T08:10:29;72941.00;;;-145.05;76.21
14069;BME280;18408;50.020;14.436;2022-07-23T08:12:57;72932.78;;;-145.05;73.97
14069;BME280;18408;50.020;14.436;2022-07-23T08:15:26;72990.19;;;-145.05;75.10
14069;BME280;18408;50.020;14.436;2022-07-23T08:17:55;73014.78;;;-145.05;75.82
14069;BME280;18408;50.020;14.436;2022-07-23T08:20:23;72943.03;;;-145.05;75.67
14069;BME280;18408;50.020;14.436;2022-07-23T08:22:50;72895.91;;;-145.05;74.09
14069;BME280;18408;50.020;14.436;2022-07-23T08:25:20;72850.81;;;-145.05;70.24
14069;BME280;18408;50.020;14.436;2022-07-23T08:27:47;72830.31;;;-145.05;70.88
14069;BME280;18408;50.020;14.436;2022-07-23T08:30:14;72740.09;;;-145.05;68.22
14069;BME280;18408;50.020;14.436;2022-07-23T08:32:49;72649.91;;;-145.05;67.65
14069;BME280;18408;50.020;14.436;2022-07-23T08:35:17;72606.88;;;-145.05;65.55
14069;BME280;18408;50.020;14.436;2022-07-23T08:37:45;72613.03;;;-145.05;64.46
14069;BME280;18408;50.020;14.436;2022-07-23T08:40:11;72690.91;;;-145.05;66.63
14069;BME280;18408;50.020;14.436;2022-07-23T08:42:38;72684.75;;;-145.05;65.69
14069;BME280;18408;50.020;14.436;2022-07-23T08:45:06;72670.41;;;-145.05;64.89
14069;BME280;18408;50.020;14.436;2022-07-23T08:47:37;72639.69;;;-145.05;65.54
14069;BME280;18408;50.020;14.436;2022-07-23T08:50:07;72600.72;;;-145.05;61.09
14069;BME280;18408;50.020;14.436;2022-07-23T08:52:35;72602.78;;;-145.05;61.77
14069;BME280;18408;50.020;14.436;2022-07-23T08:55:02;72594.59;;;-145.05;61.40
14069;BME280;18408;50.020;14.436;2022-07-23T08:57:29;72594.59;;;-145.05;61.83
14069;BME280;18408;50.020;14.436;2022-07-23T08:59:56;72625.31;;;-145.05;60.82
14069;BME280;18408;50.020;14.436;2022-07-23T09:02:24;72617.13;;;-145.05;62.00
14069;BME280;18408;50.020;14.436;2022-07-23T09:04:50;72565.88;;;-145.05;60.71
14069;BME280;18408;50.020;14.436;2022-07-23T09:07:17;72598.69;;;-145.05;60.06
14069;BME280;18408;50.020;14.436;2022-07-23T09:09:44;72567.94;;;-145.05;58.60
14069;BME280;18408;50.020;14.436;2022-07-23T09:12:11;72488.00;;;-145.05;56.96
14069;BME280;18408;50.020;14.436;2022-07-23T09:14:38;72510.53;;;-145.05;56.86
14069;BME280;18408;50.020;14.436;2022-07-23T09:17:11;72533.09;;;-145.05;57.98
14069;BME280;18408;50.020;14.436;2022-07-23T09:19:39;72488.00;;;-145.05;58.00
14069;BME280;18408;50.020;14.436;2022-07-23T09:22:21;72440.88;;;-145.05;56.67
14069;BME280;18408;50.020;14.436;2022-07-23T09:25:05;72416.25;;;-145.05;54.97
14069;BME280;18408;50.020;14.436;2022-07-23T09:27:48;72420.38;;;-145.05;55.00
14069;BME280;18408;50.020;14.436;2022-07-23T09:30:16;72330.19;;;-145.05;52.58
14069;BME280;18408;50.020;14.436;2022-07-23T09:32:42;72324.03;;;-145.05;51.97
14069;BME280;18408;50.020;14.436;2022-07-23T09:35:09;72375.28;;;-145.05;52.69
14069;BME280;18408;50.020;14.436;2022-07-23T09:37:35;72403.97;;;-145.05;51.76
14069;BME280;18408;50.020;14.436;2022-07-23T09:40:12;72475.69;;;-145.05;53.71
14069;BME280;18408;50.020;14.436;2022-07-23T09:42:41;72492.09;;;-145.05;51.29
14069;BME280;18408;50.020;14.436;2022-07-23T09:45:20;72469.56;;;-145.05;51.43
14069;BME280;18408;50.020;14.436;2022-07-23T09:47:50;72526.94;;;-145.05;50.95
14069;BME280;18408;50.020;14.436;2022-07-23T09:50:21;72512.59;;;-145.05;52.43
14069;BME280;18408;50.020;14.436;2022-07-23T09:52:48;72539.25;;;-145.05;52.23
14069;BME280;18408;50.020;14.436;2022-07-23T09:55:18;72545.38;;;-145.05;54.11
14069;BME280;18408;50.020;14.436;2022-07-23T09:57:46;72535.13;;;-145.05;53.31
14069;BME280;18408;50.020;14.436;2022-07-23T10:00:15;72543.34;;;-145.05;51.76
14069;BME280;18408;50.020;14.436;2022-07-23T10:02:41;72545.38;;;-145.05;53.49
14069;BME280;18408;50.020;14.436;2022-07-23T10:05:10;72457.25;;;-145.05;51.86
14069;BME280;18408;50.020;14.436;2022-07-23T10:07:37;72420.38;;;-145.05;48.24
14069;BME280;18408;50.020;14.436;2022-07-23T10:10:06;72444.97;;;-145.05;48.03
14069;BME280;18408;50.020;14.436;2022-07-23T10:12:35;72406.03;;;-145.05;47.16
14069;BME280;18408;50.020;14.436;2022-07-23T10:15:16;72326.09;;;-145.05;46.91
14069;BME280;18408;50.020;14.436;2022-07-23T10:17:42;72307.66;;;-145.05;47.48
14069;BME280;18408;50.020;14.436;2022-07-23T10:20:09;72360.94;;;-145.05;48.26
14069;BME280;18408;50.020;14.436;2022-07-23T10:22:36;72408.06;;;-145.05;48.69
14069;BME280;18408;50.020;14.436;2022-07-23T10:25:07;72408.06;;;-145.05;48.05
14069;BME280;18408;50.020;14.436;2022-07-23T10:27:53;72383.47;;;-145.05;45.57
14069;BME280;18408;50.020;14.436;2022-07-23T10:30:43;72377.31;;;-145.05;48.11
14069;BME280;18408;50.020;14.436;2022-07-23T10:33:15;72350.69;;;-145.05;44.93
14069;BME280;18408;50.020;14.436;2022-07-23T10:35:47;72299.44;;;-145.05;46.35
14069;BME280;18408;50.020;14.436;2022-07-23T10:38:19;72322.00;;;-145.05;45.19
14069;BME280;18408;50.020;14.436;2022-07-23T10:40:53;72340.44;;;-145.05;45.10
14069;BME280;18408;50.020;14.436;2022-07-23T10:43:21;72354.78;;;-145.05;44.85
14069;BME280;18408;50.020;14.436;2022-07-23T10:45:47;72418.31;;;-145.05;45.67
14069;BME280;18408;50.020;14.436;2022-07-23T10:48:14;72444.97;;;-145.05;45.74
14069;BME280;18408;50.020;14.436;2022-07-23T10:50:42;72442.91;;;-145.05;44.65
14069;BME280;18408;50.020;14.436;2022-07-23T10:53:09;72387.56;;;-145.05;45.09
14069;BME280;18408;50.020;14.436;2022-07-23T10:55:50;72301.50;;;-145.05;42.35
14069;BME280;18408;50.020;14.436;2022-07-23T10:58:23;72192.88;;;-145.05;41.39
14069;BME280;18408;50.020;14.436;2022-07-23T11:00:59;72221.56;;;-145.05;40.91
14069;BME280;18408;50.020;14.436;2022-07-23T11:03:34;72209.28;;;-145.05;40.35
14069;BME280;18408;50.020;14.436;2022-07-23T11:06:03;72240.00;;;-145.05;40.63
14069;BME280;18408;50.020;14.436;2022-07-23T11:08:30;72188.78;;;-145.05;41.35
14069;BME280;18408;50.020;14.436;2022-07-23T11:11:07;72194.91;;;-145.05;40.89
14069;BME280;18408;50.020;14.436;2022-07-23T11:13:40;72125.25;;;-145.05;39.86
14069;BME280;18408;50.020;14.436;2022-07-23T11:16:08;72121.16;;;-145.05;38.71
14069;BME280;18408;50.020;14.436;2022-07-23T11:18:57;72059.66;;;-145.05;38.05
14069;BME280;18408;50.020;14.436;2022-07-23T11:21:46;72069.91;;;-145.05;37.96
14069;BME280;18408;50.020;14.436;2022-07-23T11:24:13;72176.47;;;-145.05;39.07
14069;BME280;18408;50.020;14.436;2022-07-23T11:26:42;72143.69;;;-145.05;39.59
14069;BME280;18408;50.020;14.436;2022-07-23T11:31:55;72155.97;;;-145.05;39.05
14069;BME280;18408;50.020;14.436;2022-07-23T11:34:24;72182.63;;;-145.05;38.79
14069;BME280;18408;50.020;14.436;2022-07-23T11:36:50;72158.03;;;-145.05;39.03
14069;BME280;18408;50.020;14.436;2022-07-23T11:39:17;72151.88;;;-145.05;38.54
14069;BME280;18408;50.020;14.436;2022-07-23T11:41:45;72123.19;;;-145.05;38.98
14069;BME280;18408;50.020;14.436;2022-07-23T11:44:23;72102.69;;;-145.05;39.27
14069;BME280;18408;50.020;14.436;2022-07-23T11:46:55;72170.31;;;-145.05;38.79
14069;BME280;18408;50.020;14.436;2022-07-23T11:49:22;72256.41;;;-145.05;39.38
14069;BME280;18408;50.020;14.436;2022-07-23T11:52:01;72444.97;;;-145.05;39.12
14069;BME280;18408;50.020;14.436;2022-07-23T11:54:28;72555.63;;;-145.05;40.49
14069;BME280;18408;50.020;14.436;2022-07-23T11:56:55;72533.09;;;-145.05;40.30
14069;BME280;18408;50.020;14.436;2022-07-23T11:59:22;72596.63;;;-145.05;41.04
14069;BME280;18408;50.020;14.436;2022-07-23T12:01:58;72641.72;;;-145.05;41.04
14069;BME280;18408;50.020;14.436;2022-07-23T12:04:25;72701.16;;;-145.05;40.30
14069;BME280;18408;50.020;14.436;2022-07-23T12:06:51;72832.34;;;-145.05;41.61
14069;BME280;18408;50.020;14.436;2022-07-23T12:09:18;72842.59;;;-145.05;42.66
14069;BME280;18408;50.020;14.436;2022-07-23T12:11:56;72852.84;;;-145.05;45.18
14069;BME280;18408;50.020;14.436;2022-07-23T12:14:22;72897.94;;;-145.05;48.10
14069;BME280;18408;50.020;14.436;2022-07-23T12:19:31;72881.53;;;-145.05;51.11
14069;BME280;18408;50.020;14.436;2022-07-23T12:21:58;72936.88;;;-145.05;53.54
14069;BME280;18408;50.020;14.436;2022-07-23T12:24:24;72867.19;;;-145.05;51.67
14069;BME280;18408;50.020;14.436;2022-07-23T12:27:09;72764.72;;;-145.05;48.63
14069;BME280;18408;50.020;14.436;2022-07-23T12:29:36;72789.31;;;-145.05;49.13
14069;BME280;18408;50.020;14.436;2022-07-23T12:32:02;72772.91;;;-145.05;50.20
14069;BME280;18408;50.020;14.436;2022-07-23T12:34:42;72774.97;;;-145.05;51.09
14069;BME280;18408;50.020;14.436;2022-07-23T12:39:49;72781.09;;;-145.05;52.64
14069;BME280;18408;50.020;14.436;2022-07-23T12:42:16;72772.91;;;-145.05;52.56
14069;BME280;18408;50.020;14.436;2022-07-23T12:47:23;72805.69;;;-145.05;59.90